Time;durP1;ratioP1;P1;durP2;ratioP2;P2;SDS_P1;SDS_P2;PMS_P1;PMS_P2;Temp;Humidity;BMP_temperature;BMP_pressure;BME280_temperature;BME280_humidity;BME280_pressure;Samples;Min_cycle;Max_cycle;Signal;HPM_P1;HPM_P2
2024/03/09 00:02:37;;;;;;;32.55;12.52;;;;;;;;;;6300061;28;20055;-80
2024/03/09 00:05:39;;;;;;;33.45;13.63;;;;;;;;;;6304417;28;20533;-78
2024/03/09 00:08:43;;;;;;;35.22;14.02;;;;;;;;;;6305920;28;20047;-78
2024/03/09 00:11:46;;;;;;;34.17;14.35;;;;;;;;;;6308199;28;20528;-80
2024/03/09 00:14:47;;;;;;;35.50;13.50;;;;;;;;;;6313277;28;20079;-77
2024/03/09 00:17:54;;;;;;;36.47;14.85;;;;;;;;;;6293353;28;20045;-78
2024/03/09 00:20:56;;;;;;;34.28;14.55;;;;;;;;;;6313866;28;20054;-79
2024/03/09 00:23:57;;;;;;;35.58;14.40;;;;;;;;;;6309312;28;20052;-81
2024/03/09 00:26:59;;;;;;;35.97;13.98;;;;;;;;;;6311322;28;20053;-80
2024/03/09 00:30:02;;;;;;;36.60;13.57;;;;;;;;;;6308740;28;20519;-79
2024/03/09 00:33:07;;;;;;;36.25;13.60;;;;;;;;;;6298426;28;20044;-80
2024/03/09 00:36:10;;;;;;;30.08;12.18;;;;;;;;;;6308780;28;20044;-79
2024/03/09 00:39:13;;;;;;;38.42;13.70;;;;;;;;;;6306383;28;20040;-81
2024/03/09 00:42:15;;;;;;;33.95;13.50;;;;;;;;;;6300515;28;20052;-80
2024/03/09 00:45:18;;;;;;;31.70;12.63;;;;;;;;;;6282840;28;20049;-78
2024/03/09 00:48:20;;;;;;;34.42;12.98;;;;;;;;;;6315614;28;20454;-77
2024/03/09 00:51:22;;;;;;;34.50;12.35;;;;;;;;;;6335683;28;20059;-77
2024/03/09 00:54:25;;;;;;;31.58;13.32;;;;;;;;;;6299608;28;20125;-78
2024/03/09 00:57:28;;;;;;;34.30;13.40;;;;;;;;;;6307595;27;20052;-80
2024/03/09 01:00:30;;;;;;;34.08;13.40;;;;;;;;;;6305758;28;20044;-79
2024/03/09 01:03:31;;;;;;;31.33;12.25;;;;;;;;;;6304833;27;20117;-79
2024/03/09 01:06:33;;;;;;;31.45;12.18;;;;;;;;;;6309435;28;20043;-81
2024/03/09 01:09:35;;;;;;;32.40;12.82;;;;;;;;;;6308141;28;20055;-80
2024/03/09 01:12:36;;;;;;;28.40;11.93;;;;;;;;;;6293095;28;20048;-80
2024/03/09 01:15:39;;;;;;;30.20;11.43;;;;;;;;;;6303701;28;20052;-79
2024/03/09 01:18:42;;;;;;;28.88;12.00;;;;;;;;;;6292449;28;20100;-79
2024/03/09 01:21:46;;;;;;;27.48;11.55;;;;;;;;;;6294053;28;20048;-80
2024/03/09 01:24:49;;;;;;;33.50;13.02;;;;;;;;;;6290250;28;20051;-81
2024/03/09 01:27:51;;;;;;;30.55;12.38;;;;;;;;;;6284475;28;20052;-80
2024/03/09 01:30:53;;;;;;;33.75;12.23;;;;;;;;;;6277414;28;20048;-79
2024/03/09 01:33:55;;;;;;;30.42;12.15;;;;;;;;;;6295562;28;20049;-79
2024/03/09 01:36:56;;;;;;;27.88;11.93;;;;;;;;;;6302472;28;20510;-78
2024/03/09 01:39:58;;;;;;;35.63;12.75;;;;;;;;;;6303806;28;20071;-80
2024/03/09 01:43:00;;;;;;;34.03;13.77;;;;;;;;;;6303708;28;20595;-76
2024/03/09 01:46:03;;;;;;;36.08;12.93;;;;;;;;;;6300831;28;20045;-78
2024/03/09 01:49:06;;;;;;;32.38;12.95;;;;;;;;;;6302826;28;20048;-80
2024/03/09 01:52:08;;;;;;;;;;;;;;;;;;6290157;28;20053;-78
2024/03/09 01:55:12;;;;;;;33.38;12.18;;;;;;;;;;6266074;28;19921;-79
2024/03/09 01:58:19;;;;;;;30.50;11.98;;;;;;;;;;6280995;28;20048;-79
2024/03/09 02:01:26;;;;;;;30.17;11.43;;;;;;;;;;6279605;28;20059;-80
2024/03/09 02:04:29;;;;;;;31.83;12.48;;;;;;;;;;6263445;28;20572;-80
2024/03/09 02:07:35;;;;;;;29.30;12.20;;;;;;;;;;6274988;28;20048;-79
2024/03/09 02:10:38;;;;;;;30.00;12.07;;;;;;;;;;6276143;28;20044;-78
2024/03/09 02:13:41;;;;;;;33.50;11.52;;;;;;;;;;6285372;28;20141;-80
2024/03/09 02:16:43;;;;;;;29.47;11.77;;;;;;;;;;6286770;28;20048;-79
2024/03/09 02:19:44;;;;;;;26.17;10.63;;;;;;;;;;6297735;28;20413;-80
2024/03/09 02:22:46;;;;;;;33.92;12.65;;;;;;;;;;6289645;28;20097;-78
2024/03/09 02:25:50;;;;;;;27.63;12.00;;;;;;;;;;6310311;28;20052;-78
2024/03/09 02:28:56;;;;;;;30.23;12.02;;;;;;;;;;6286797;28;20059;-81
2024/03/09 02:31:57;;;;;;;32.25;12.38;;;;;;;;;;6297485;28;20044;-78
2024/03/09 02:34:59;;;;;;;30.35;12.63;;;;;;;;;;6308107;28;20064;-80
2024/03/09 02:38:01;;;;;;;28.00;11.75;;;;;;;;;;6301564;28;20044;-79
2024/03/09 02:41:03;;;;;;;29.45;12.05;;;;;;;;;;6306363;28;20032;-80
2024/03/09 02:44:05;;;;;;;30.58;12.25;;;;;;;;;;6310215;28;20119;-80
2024/03/09 02:47:10;;;;;;;29.13;10.93;;;;;;;;;;6311028;28;20036;-76
2024/03/09 02:50:11;;;;;;;24.83;11.48;;;;;;;;;;6324647;28;20040;-78
2024/03/09 02:53:13;;;;;;;24.17;10.65;;;;;;;;;;6301690;28;20543;-80
2024/03/09 02:56:18;;;;;;;25.88;10.85;;;;;;;;;;6299520;27;20406;-80
2024/03/09 02:59:19;;;;;;;27.48;11.27;;;;;;;;;;6292991;28;20051;-80
2024/03/09 03:05:42;;;;;;;27.63;11.50;;;;;;;;;;6306704;28;20330;-78
2024/03/09 03:08:45;;;;;;;28.65;10.98;;;;;;;;;;6304270;28;20044;-78
2024/03/09 03:11:47;;;;;;;30.30;11.05;;;;;;;;;;6309054;28;20521;-78
2024/03/09 03:14:50;;;;;;;30.02;11.52;;;;;;;;;;6305931;28;20051;-80
2024/03/09 03:17:52;;;;;;;30.63;12.63;;;;;;;;;;6313612;28;20041;-77
2024/03/09 03:20:53;;;;;;;29.02;12.15;;;;;;;;;;6306398;28;20440;-78
2024/03/09 03:23:55;;;;;;;31.02;12.02;;;;;;;;;;6313962;28;20406;-79
2024/03/09 03:26:57;;;;;;;33.78;12.40;;;;;;;;;;6275140;28;20057;-79
2024/03/09 03:29:59;;;;;;;29.02;11.35;;;;;;;;;;6283320;28;20044;-77
2024/03/09 03:33:00;;;;;;;31.55;12.38;;;;;;;;;;6284781;28;20535;-78
2024/03/09 03:36:02;;;;;;;27.98;11.60;;;;;;;;;;6301353;28;20095;-77
2024/03/09 03:39:04;;;;;;;28.63;11.80;;;;;;;;;;6306939;28;20063;-80
2024/03/09 03:42:06;;;;;;;26.98;11.45;;;;;;;;;;6303997;28;20131;-78
2024/03/09 03:45:11;;;;;;;30.17;12.30;;;;;;;;;;6263326;28;20518;-77
2024/03/09 03:48:15;;;;;;;28.02;11.00;;;;;;;;;;6275017;28;20037;-77
2024/03/09 03:51:18;;;;;;;28.70;11.52;;;;;;;;;;6305484;28;20048;-79
2024/03/09 03:54:22;;;;;;;27.58;10.98;;;;;;;;;;6283862;28;20059;-79
2024/03/09 03:57:23;;;;;;;29.50;12.20;;;;;;;;;;6278539;28;20041;-77
2024/03/09 04:00:25;;;;;;;29.95;11.07;;;;;;;;;;6291084;28;20056;-80
2024/03/09 04:03:31;;;;;;;32.10;11.80;;;;;;;;;;6315662;28;20048;-79
2024/03/09 04:06:33;;;;;;;29.90;11.82;;;;;;;;;;6305272;28;20047;-77
2024/03/09 04:09:35;;;;;;;29.80;11.15;;;;;;;;;;6304260;28;20047;-80
2024/03/09 04:12:40;;;;;;;25.40;11.55;;;;;;;;;;6302391;28;20044;-78
2024/03/09 04:15:44;;;;;;;30.58;11.27;;;;;;;;;;6297902;28;20056;-78
2024/03/09 04:18:46;;;;;;;37.90;13.85;;;;;;;;;;6301536;28;20056;-80
2024/03/09 04:21:47;;;;;;;28.00;10.68;;;;;;;;;;6303558;28;20501;-80
2024/03/09 04:24:49;;;;;;;24.20;10.68;;;;;;;;;;6301844;28;20040;-79
2024/03/09 04:27:52;;;;;;;25.00;9.70;;;;;;;;;;6299133;28;20181;-78
2024/03/09 04:30:54;;;;;;;38.67;13.57;;;;;;;;;;6293516;28;20048;-78
2024/03/09 04:33:56;;;;;;;44.42;15.50;;;;;;;;;;6291413;28;20125;-79
2024/03/09 04:36:59;;;;;;;34.42;13.43;;;;;;;;;;6273055;28;20044;-75
2024/03/09 04:40:03;;;;;;;30.50;13.13;;;;;;;;;;6295292;28;20577;-80
2024/03/09 04:43:12;;;;;;;35.85;13.15;;;;;;;;;;6290295;28;20048;-80
2024/03/09 04:46:15;;;;;;;28.50;13.10;;;;;;;;;;6292596;28;20055;-79
2024/03/09 04:49:17;;;;;;;33.90;12.88;;;;;;;;;;6317602;27;20050;-79
2024/03/09 04:52:19;;;;;;;28.80;11.67;;;;;;;;;;6305885;28;20069;-80
2024/03/09 04:55:22;;;;;;;29.52;11.70;;;;;;;;;;6305492;28;20454;-80
2024/03/09 04:58:24;;;;;;;32.55;12.10;;;;;;;;;;6286725;28;20047;-77
2024/03/09 05:01:27;;;;;;;34.88;13.32;;;;;;;;;;6304435;28;20063;-79
2024/03/09 05:04:28;;;;;;;37.25;15.35;;;;;;;;;;6304957;28;20048;-79
2024/03/09 05:07:30;;;;;;;35.80;12.45;;;;;;;;;;6299555;27;20041;-78
2024/03/09 05:10:32;;;;;;;29.58;11.10;;;;;;;;;;6303972;28;20130;-80
2024/03/09 05:13:34;;;;;;;24.83;10.20;;;;;;;;;;6308989;28;20051;-78
2024/03/09 05:16:36;;;;;;;28.02;11.75;;;;;;;;;;6286224;28;20078;-77
2024/03/09 05:19:38;;;;;;;28.50;11.05;;;;;;;;;;6306624;28;20047;-80
2024/03/09 05:22:40;;;;;;;43.42;16.70;;;;;;;;;;6306696;28;20040;-80
2024/03/09 05:25:42;;;;;;;37.63;12.52;;;;;;;;;;6288454;28;20032;-79
2024/03/09 05:28:45;;;;;;;32.07;11.83;;;;;;;;;;6306295;27;20063;-79
2024/03/09 05:31:46;;;;;;;28.70;11.80;;;;;;;;;;6290932;28;20044;-79
2024/03/09 05:34:48;;;;;;;31.65;12.25;;;;;;;;;;6293221;27;20428;-81
2024/03/09 05:37:50;;;;;;;42.58;18.00;;;;;;;;;;6278241;28;20111;-80
2024/03/09 05:40:52;;;;;;;45.30;16.25;;;;;;;;;;6287796;28;20644;-78
2024/03/09 05:43:55;;;;;;;27.58;13.55;;;;;;;;;;6301735;28;20048;-80
2024/03/09 05:46:57;;;;;;;27.48;11.90;;;;;;;;;;6301269;27;20422;-79
2024/03/09 05:49:58;;;;;;;26.80;11.63;;;;;;;;;;6268354;28;20464;-80
2024/03/09 05:53:05;;;;;;;30.70;11.98;;;;;;;;;;6275759;28;20048;-80
2024/03/09 05:56:11;;;;;;;30.95;12.43;;;;;;;;;;6272048;28;20126;-80
2024/03/09 05:59:15;;;;;;;30.35;12.75;;;;;;;;;;6277283;28;20052;-81
2024/03/09 06:02:16;;;;;;;27.63;11.35;;;;;;;;;;6257858;28;20044;-79
2024/03/09 06:05:19;;;;;;;25.88;10.32;;;;;;;;;;6281089;28;20754;-77
2024/03/09 06:08:21;;;;;;;34.78;12.90;;;;;;;;;;6287999;28;20037;-78
2024/03/09 06:11:23;;;;;;;49.85;17.67;;;;;;;;;;6289231;28;20537;-81
2024/03/09 06:14:26;;;;;;;36.45;14.10;;;;;;;;;;6316077;28;20075;-80
2024/03/09 06:17:29;;;;;;;34.85;13.48;;;;;;;;;;6304176;27;20047;-79
2024/03/09 06:20:32;;;;;;;35.85;13.90;;;;;;;;;;6307882;28;20068;-79
2024/03/09 06:23:35;;;;;;;28.90;11.68;;;;;;;;;;6308694;28;20117;-78
2024/03/09 06:26:36;;;;;;;48.20;19.73;;;;;;;;;;6316334;28;20971;-82
2024/03/09 06:29:38;;;;;;;30.92;12.65;;;;;;;;;;6309872;28;20048;-80
2024/03/09 06:32:40;;;;;;;51.70;20.45;;;;;;;;;;6309776;28;20080;-78
2024/03/09 06:35:41;;;;;;;34.63;13.70;;;;;;;;;;6309662;28;20074;-78
2024/03/09 06:38:48;;;;;;;29.30;12.82;;;;;;;;;;6277432;28;20574;-80
2024/03/09 06:41:52;;;;;;;35.20;12.60;;;;;;;;;;6282373;28;20048;-81
2024/03/09 06:44:54;;;;;;;32.65;12.52;;;;;;;;;;6304097;28;20044;-79
2024/03/09 06:47:57;;;;;;;27.27;11.73;;;;;;;;;;6298552;28;20114;-81
2024/03/09 06:51:00;;;;;;;32.70;13.10;;;;;;;;;;6310128;28;20107;-78
2024/03/09 06:54:01;;;;;;;62.22;23.90;;;;;;;;;;6309778;28;20059;-77
2024/03/09 06:57:03;;;;;;;31.48;12.63;;;;;;;;;;6302365;27;20054;-79
2024/03/09 07:00:12;;;;;;;86.93;32.95;;;;;;;;;;6276044;28;20213;-79
2024/03/09 07:03:14;;;;;;;61.70;24.48;;;;;;;;;;6283526;28;20130;-81
2024/03/09 07:06:16;;;;;;;40.35;17.52;;;;;;;;;;6274413;28;20052;-81
2024/03/09 07:09:19;;;;;;;29.23;13.30;;;;;;;;;;6290933;28;20051;-80
2024/03/09 07:12:21;;;;;;;;;;;;;;;;;;6307964;28;20040;-81
2024/03/09 07:15:25;;;;;;;31.13;12.02;;;;;;;;;;6308237;28;20321;-80
2024/03/09 07:18:30;;;;;;;32.08;13.30;;;;;;;;;;6305317;27;20059;-78
2024/03/09 07:21:33;;;;;;;34.00;12.30;;;;;;;;;;6308409;28;20050;-80
2024/03/09 07:24:36;;;;;;;34.58;13.25;;;;;;;;;;6307905;28;20044;-79
2024/03/09 07:27:40;;;;;;;31.23;12.77;;;;;;;;;;6319078;27;20294;-81
2024/03/09 07:30:42;;;;;;;45.03;17.00;;;;;;;;;;6313089;28;20421;-79
2024/03/09 07:33:44;;;;;;;64.50;23.60;;;;;;;;;;6291973;28;20053;-78
2024/03/09 07:36:46;;;;;;;66.68;28.45;;;;;;;;;;6310302;27;20408;-82
2024/03/09 07:39:48;;;;;;;78.03;28.08;;;;;;;;;;6287154;28;20114;-81
2024/03/09 07:42:52;;;;;;;65.68;26.98;;;;;;;;;;6312583;28;20057;-79
2024/03/09 07:45:54;;;;;;;44.65;18.45;;;;;;;;;;6296515;28;20051;-80
2024/03/09 07:48:56;;;;;;;28.33;13.20;;;;;;;;;;6292474;27;20048;-81
2024/03/09 07:51:57;;;;;;;28.73;15.10;;;;;;;;;;6310779;28;20044;-81
2024/03/09 07:54:59;;;;;;;32.90;15.98;;;;;;;;;;6311538;28;20090;-79
2024/03/09 07:58:01;;;;;;;44.70;19.33;;;;;;;;;;6308723;28;21111;-80
2024/03/09 08:01:05;;;;;;;35.70;16.77;;;;;;;;;;6316668;28;20129;-82
2024/03/09 08:04:08;;;;;;;57.13;22.02;;;;;;;;;;6303235;28;20047;-81
2024/03/09 08:07:12;;;;;;;39.73;17.40;;;;;;;;;;6298116;28;20632;-81
2024/03/09 08:10:14;;;;;;;28.20;12.40;;;;;;;;;;6326955;27;20048;-79
2024/03/09 08:13:19;;;;;;;28.92;12.57;;;;;;;;;;6298839;27;20062;-81
2024/03/09 08:16:21;;;;;;;26.92;12.88;;;;;;;;;;6296003;28;20406;-81
2024/03/09 08:19:23;;;;;;;28.50;13.02;;;;;;;;;;6291852;28;20036;-82
2024/03/09 08:22:25;;;;;;;25.60;12.23;;;;;;;;;;6313991;28;20105;-84
2024/03/09 08:25:27;;;;;;;28.92;14.10;;;;;;;;;;6314579;28;20040;-81
2024/03/09 08:28:32;;;;;;;25.75;12.90;;;;;;;;;;6312669;27;20047;-83
2024/03/09 08:31:34;;;;;;;26.45;12.43;;;;;;;;;;6293053;28;20059;-79
2024/03/09 08:34:36;;;;;;;27.25;12.80;;;;;;;;;;6309335;28;20151;-83
2024/03/09 08:37:41;;;;;;;22.15;11.27;;;;;;;;;;6313191;27;20108;-83
2024/03/09 08:40:43;;;;;;;24.00;10.88;;;;;;;;;;6314695;28;20060;-82
2024/03/09 08:43:45;;;;;;;18.88;9.82;;;;;;;;;;6309605;27;20110;-83
2024/03/09 08:46:46;;;;;;;22.73;10.77;;;;;;;;;;6312576;28;20040;-81
2024/03/09 08:49:48;;;;;;;19.58;9.80;;;;;;;;;;6290580;28;20041;-83
2024/03/09 08:52:50;;;;;;;20.13;9.90;;;;;;;;;;6284488;28;20095;-84
2024/03/09 08:55:52;;;;;;;19.75;9.85;;;;;;;;;;6278057;28;20067;-83
2024/03/09 08:58:54;;;;;;;20.67;9.30;;;;;;;;;;6293637;28;20684;-81
2024/03/09 09:01:55;;;;;;;18.25;8.73;;;;;;;;;;6300188;28;20730;-84
2024/03/09 09:04:59;;;;;;;16.35;8.57;;;;;;;;;;6307440;28;20509;-83
2024/03/09 09:08:01;;;;;;;17.00;9.13;;;;;;;;;;6298498;27;20051;-83
2024/03/09 09:11:04;;;;;;;21.45;9.27;;;;;;;;;;6312992;28;20071;-82
2024/03/09 09:14:06;;;;;;;16.80;8.65;;;;;;;;;;6309914;28;20221;-82
2024/03/09 09:17:09;;;;;;;17.92;9.07;;;;;;;;;;6309131;28;20044;-82
2024/03/09 09:20:12;;;;;;;18.77;9.85;;;;;;;;;;6282304;28;20040;-82
2024/03/09 09:23:16;;;;;;;16.58;8.40;;;;;;;;;;6315474;28;20064;-85
2024/03/09 09:26:18;;;;;;;16.92;8.75;;;;;;;;;;6298025;28;20043;-85
2024/03/09 09:29:20;;;;;;;16.70;8.50;;;;;;;;;;6297592;28;20529;-84
2024/03/09 09:32:23;;;;;;;16.50;8.73;;;;;;;;;;6284387;28;20081;-82
2024/03/09 09:35:26;;;;;;;17.02;8.80;;;;;;;;;;6287710;28;20040;-83
2024/03/09 09:38:31;;;;;;;13.55;8.15;;;;;;;;;;6275334;28;20044;-83
2024/03/09 09:41:34;;;;;;;15.18;8.23;;;;;;;;;;6290290;28;20040;-83
2024/03/09 09:44:37;;;;;;;15.05;7.95;;;;;;;;;;6274310;28;20510;-83
2024/03/09 09:47:38;;;;;;;14.98;8.00;;;;;;;;;;6296362;28;20391;-85
2024/03/09 09:50:44;;;;;;;15.13;8.02;;;;;;;;;;6300339;28;21231;-84
2024/03/09 09:53:49;;;;;;;15.32;8.48;;;;;;;;;;6298181;28;20077;-83
2024/03/09 09:56:53;;;;;;;16.83;9.32;;;;;;;;;;6296883;28;20506;-83
2024/03/09 09:59:57;;;;;;;15.38;8.73;;;;;;;;;;6293147;27;20052;-84
2024/03/09 10:03:00;;;;;;;14.85;8.02;;;;;;;;;;6282624;27;20048;-83
2024/03/09 10:06:17;;;;;;;14.15;8.73;;;;;;;;;;6303268;27;20173;-83
2024/03/09 10:09:28;;;;;;;16.17;8.05;;;;;;;;;;6299683;28;20043;-83
2024/03/09 10:12:30;;;;;;;15.05;8.05;;;;;;;;;;6284250;28;20110;-83
2024/03/09 10:15:36;;;;;;;16.42;8.57;;;;;;;;;;6303307;28;20047;-83
2024/03/09 10:18:40;;;;;;;14.65;8.43;;;;;;;;;;6287489;28;20104;-82
2024/03/09 10:21:42;;;;;;;15.38;9.18;;;;;;;;;;6301323;28;20062;-83
2024/03/09 10:24:58;;;;;;;16.40;9.35;;;;;;;;;;6303451;28;20040;-82
2024/03/09 10:28:01;;;;;;;14.73;8.52;;;;;;;;;;6293021;28;20478;-82
2024/03/09 10:31:04;;;;;;;17.27;8.73;;;;;;;;;;6280112;28;20056;-83
2024/03/09 10:34:08;;;;;;;14.73;8.43;;;;;;;;;;6311034;28;20050;-83
2024/03/09 10:37:17;;;;;;;16.42;8.45;;;;;;;;;;6302118;28;20094;-83
2024/03/09 10:40:20;;;;;;;17.85;9.68;;;;;;;;;;6300629;28;21379;-83
2024/03/09 10:43:22;;;;;;;;;;;;;;;;;;6285913;27;20696;-80
2024/03/09 10:46:27;;;;;;;16.13;8.30;;;;;;;;;;6311805;28;19924;-81
2024/03/09 10:49:30;;;;;;;17.67;8.85;;;;;;;;;;6306309;28;20057;-83
2024/03/09 10:52:32;;;;;;;17.00;9.23;;;;;;;;;;6323986;28;20028;-80
2024/03/09 10:55:43;;;;;;;16.45;8.52;;;;;;;;;;6333438;28;20077;-80
2024/03/09 10:58:45;;;;;;;14.77;8.52;;;;;;;;;;6311835;28;20058;-81
2024/03/09 11:01:49;;;;;;;18.40;10.40;;;;;;;;;;6300635;27;20052;-83
2024/03/09 11:04:52;;;;;;;16.83;9.40;;;;;;;;;;6307402;28;20044;-84
2024/03/09 11:07:54;;;;;;;;;;;;;;;;;;6288550;28;20418;-83
2024/03/09 11:10:56;;;;;;;18.98;10.20;;;;;;;;;;6305142;28;19931;-83
2024/03/09 11:14:03;;;;;;;18.13;9.73;;;;;;;;;;6290096;28;20056;-81
2024/03/09 11:17:05;;;;;;;16.52;8.93;;;;;;;;;;6294166;28;20117;-82
2024/03/09 11:20:12;;;;;;;15.70;8.75;;;;;;;;;;6272974;28;20064;-82
2024/03/09 11:23:14;;;;;;;16.88;9.55;;;;;;;;;;6275732;28;20135;-82
2024/03/09 11:26:21;;;;;;;16.40;9.13;;;;;;;;;;6289483;28;20036;-82
2024/03/09 11:29:30;;;;;;;14.88;8.50;;;;;;;;;;6296030;28;20052;-84
2024/03/09 11:32:34;;;;;;;17.13;9.43;;;;;;;;;;6291880;27;20044;-83
2024/03/09 11:35:35;;;;;;;24.80;12.35;;;;;;;;;;6287835;28;20051;-84
2024/03/09 11:38:39;;;;;;;17.38;9.73;;;;;;;;;;6281740;28;20052;-85
2024/03/09 11:41:46;;;;;;;14.52;9.25;;;;;;;;;;6281997;28;20094;-84
2024/03/09 11:44:48;;;;;;;17.40;9.20;;;;;;;;;;6286524;28;20135;-82
2024/03/09 11:47:52;;;;;;;17.85;9.82;;;;;;;;;;6284038;28;20056;-84
2024/03/09 11:50:54;;;;;;;17.70;9.60;;;;;;;;;;6305394;28;20063;-84
2024/03/09 11:53:58;;;;;;;14.60;9.10;;;;;;;;;;6301449;28;20052;-85
2024/03/09 11:57:00;;;;;;;14.77;8.50;;;;;;;;;;6294880;28;20443;-85
2024/03/09 12:00:04;;;;;;;15.25;8.77;;;;;;;;;;6293545;28;20052;-83
2024/03/09 12:03:14;;;;;;;13.38;8.18;;;;;;;;;;6295410;28;20724;-84
2024/03/09 12:06:17;;;;;;;14.50;8.32;;;;;;;;;;6299075;28;20052;-84
2024/03/09 12:09:19;;;;;;;15.07;8.80;;;;;;;;;;6294474;28;20599;-85
2024/03/09 12:12:21;;;;;;;15.60;8.75;;;;;;;;;;6303134;28;20048;-84
2024/03/09 12:15:23;;;;;;;13.90;8.70;;;;;;;;;;6308335;28;20718;-84
2024/03/09 12:18:25;;;;;;;14.45;8.40;;;;;;;;;;6299036;28;21183;-85
2024/03/09 12:21:27;;;;;;;17.40;8.63;;;;;;;;;;6296589;28;20041;-84
2024/03/09 12:24:29;;;;;;;14.15;8.20;;;;;;;;;;6285897;28;20346;-83
2024/03/09 12:27:31;;;;;;;15.57;8.85;;;;;;;;;;6297149;28;20048;-83
2024/03/09 12:30:34;;;;;;;14.40;8.60;;;;;;;;;;6302253;28;20048;-84
2024/03/09 12:33:38;;;;;;;15.70;9.07;;;;;;;;;;6305941;28;20040;-83
2024/03/09 12:36:53;;;;;;;14.73;7.85;;;;;;;;;;6313659;28;20058;-85
2024/03/09 12:40:19;;;;;;;14.18;7.90;;;;;;;;;;6305912;28;20051;-85
2024/03/09 12:43:23;;;;;;;14.07;8.10;;;;;;;;;;6311275;28;20059;-84
2024/03/09 12:46:26;;;;;;;15.02;8.43;;;;;;;;;;6302656;27;20136;-85
2024/03/09 12:49:29;;;;;;;12.63;7.68;;;;;;;;;;6310209;27;20169;-84
2024/03/09 12:52:33;;;;;;;13.15;8.20;;;;;;;;;;6312647;28;20050;-84
2024/03/09 12:55:35;;;;;;;14.70;7.97;;;;;;;;;;6308812;27;20526;-83
2024/03/09 12:58:37;;;;;;;13.02;8.13;;;;;;;;;;6310676;27;20058;-83
2024/03/09 13:01:44;;;;;;;13.88;8.23;;;;;;;;;;6310923;28;20048;-84
2024/03/09 13:04:48;;;;;;;12.73;7.40;;;;;;;;;;6311826;28;20144;-84
2024/03/09 13:07:52;;;;;;;13.68;7.50;;;;;;;;;;6294139;28;20175;-82
2024/03/09 13:10:54;;;;;;;12.82;7.60;;;;;;;;;;6284698;28;20159;-84
2024/03/09 13:13:59;;;;;;;17.10;8.02;;;;;;;;;;6287074;28;20112;-85
2024/03/09 13:17:00;;;;;;;12.48;7.63;;;;;;;;;;6311369;27;20050;-83
2024/03/09 13:20:11;;;;;;;12.25;7.78;;;;;;;;;;6309844;28;20048;-83
2024/03/09 13:23:13;;;;;;;14.48;8.00;;;;;;;;;;6282394;28;20055;-83
2024/03/09 13:26:18;;;;;;;13.80;8.35;;;;;;;;;;6286493;28;20055;-83
2024/03/09 13:29:27;;;;;;;13.93;7.78;;;;;;;;;;6276300;28;20052;-84
2024/03/09 13:32:32;;;;;;;11.15;7.00;;;;;;;;;;6303836;28;20059;-83
2024/03/09 13:35:33;;;;;;;11.90;7.35;;;;;;;;;;6301281;28;20052;-84
2024/03/09 13:38:35;;;;;;;13.77;7.70;;;;;;;;;;6281228;28;20049;-84
2024/03/09 13:41:40;;;;;;;12.88;7.95;;;;;;;;;;6310770;28;20594;-83
2024/03/09 13:44:42;;;;;;;12.63;6.85;;;;;;;;;;6314278;28;20043;-84
2024/03/09 13:47:44;;;;;;;10.45;6.20;;;;;;;;;;6292215;28;20059;-83
2024/03/09 13:50:46;;;;;;;14.88;7.55;;;;;;;;;;6317439;28;20099;-84
2024/03/09 13:53:48;;;;;;;12.48;8.02;;;;;;;;;;6294765;28;20040;-83
2024/03/09 13:56:50;;;;;;;11.43;7.45;;;;;;;;;;6314628;28;20121;-83
2024/03/09 13:59:54;;;;;;;12.43;7.18;;;;;;;;;;6318075;28;20074;-83
2024/03/09 14:02:57;;;;;;;11.38;7.07;;;;;;;;;;6288820;28;20063;-83
2024/03/09 14:06:00;;;;;;;12.02;7.28;;;;;;;;;;6299999;28;20056;-84
2024/03/09 14:09:03;;;;;;;11.43;7.03;;;;;;;;;;6313579;28;20047;-84
2024/03/09 14:12:08;;;;;;;;;;;;;;;;;;6278713;28;20110;-84
2024/03/09 14:15:20;;;;;;;11.27;6.90;;;;;;;;;;6294307;28;19917;-83
2024/03/09 14:18:25;;;;;;;12.13;7.35;;;;;;;;;;6321182;28;20048;-82
2024/03/09 14:21:26;;;;;;;11.75;7.30;;;;;;;;;;6304516;28;20033;-82
2024/03/09 14:24:29;;;;;;;13.23;8.00;;;;;;;;;;6313429;28;20048;-83
2024/03/09 14:27:31;;;;;;;13.73;7.63;;;;;;;;;;6291582;28;20078;-84
2024/03/09 14:30:34;;;;;;;12.80;7.60;;;;;;;;;;6277670;28;20040;-84
2024/03/09 14:33:36;;;;;;;12.80;7.93;;;;;;;;;;6290695;28;20447;-84
2024/03/09 14:36:38;;;;;;;13.70;7.43;;;;;;;;;;6288274;28;20506;-83
2024/03/09 14:39:40;;;;;;;13.53;7.67;;;;;;;;;;6285970;28;20047;-83
2024/03/09 14:42:47;;;;;;;12.60;7.85;;;;;;;;;;6277659;28;20040;-83
2024/03/09 14:45:51;;;;;;;12.82;8.13;;;;;;;;;;6297512;28;20051;-84
2024/03/09 14:48:53;;;;;;;14.65;8.70;;;;;;;;;;6315042;28;20048;-84
2024/03/09 14:51:55;;;;;;;13.43;7.57;;;;;;;;;;6317774;28;20044;-84
2024/03/09 14:54:58;;;;;;;12.82;7.50;;;;;;;;;;6295540;27;20105;-85
2024/03/09 14:58:02;;;;;;;12.52;7.57;;;;;;;;;;6317101;28;20051;-83
2024/03/09 15:01:04;;;;;;;13.65;7.53;;;;;;;;;;6315083;27;20056;-83
2024/03/09 15:04:08;;;;;;;13.25;7.97;;;;;;;;;;6304128;28;20048;-84
2024/03/09 15:07:10;;;;;;;13.27;7.00;;;;;;;;;;6291837;28;20041;-84
2024/03/09 15:10:12;;;;;;;13.88;8.02;;;;;;;;;;6289900;28;20040;-83
2024/03/09 15:13:19;;;;;;;13.50;7.75;;;;;;;;;;6314516;28;20046;-83
2024/03/09 15:16:22;;;;;;;15.68;7.90;;;;;;;;;;6307860;27;20052;-84
2024/03/09 15:19:24;;;;;;;12.27;7.28;;;;;;;;;;6324978;28;20053;-82
2024/03/09 15:22:28;;;;;;;13.55;7.95;;;;;;;;;;6313567;28;20051;-83
2024/03/09 15:25:31;;;;;;;14.73;7.68;;;;;;;;;;6306579;28;20035;-82
2024/03/09 15:28:34;;;;;;;14.43;7.65;;;;;;;;;;6303522;28;20043;-84
2024/03/09 15:31:35;;;;;;;13.98;7.95;;;;;;;;;;6306055;28;20372;-85
2024/03/09 15:34:38;;;;;;;14.15;7.82;;;;;;;;;;6295405;28;20050;-83
2024/03/09 15:37:40;;;;;;;12.98;8.32;;;;;;;;;;6307256;28;20135;-84
2024/03/09 15:40:42;;;;;;;13.45;8.25;;;;;;;;;;6286966;28;20040;-84
2024/03/09 15:43:47;;;;;;;13.35;7.82;;;;;;;;;;6296502;28;20481;-84
2024/03/09 15:46:52;;;;;;;11.85;7.60;;;;;;;;;;6304620;28;20048;-83
2024/03/09 15:49:54;;;;;;;31.90;18.40;;;;;;;;;;6285426;28;20829;-83
2024/03/09 15:52:56;;;;;;;18.23;12.38;;;;;;;;;;6298696;28;20070;-83
2024/03/09 15:55:58;;;;;;;14.10;7.90;;;;;;;;;;6303551;28;20051;-85
2024/03/09 15:59:03;;;;;;;24.48;12.95;;;;;;;;;;6281387;28;20048;-85
2024/03/09 16:02:06;;;;;;;13.20;8.02;;;;;;;;;;6303370;28;20044;-84
2024/03/09 16:05:09;;;;;;;35.97;18.40;;;;;;;;;;6286867;28;20055;-84
2024/03/09 16:08:11;;;;;;;67.20;28.58;;;;;;;;;;6307501;28;20048;-85
2024/03/09 16:11:15;;;;;;;14.77;7.53;;;;;;;;;;6302288;28;20243;-82
2024/03/09 16:14:17;;;;;;;15.13;8.20;;;;;;;;;;6320649;28;20044;-84
2024/03/09 16:17:22;;;;;;;18.02;9.27;;;;;;;;;;6328587;28;20044;-85
2024/03/09 16:20:30;;;;;;;18.30;10.40;;;;;;;;;;6309662;28;20668;-84
2024/03/09 16:23:33;;;;;;;24.15;11.68;;;;;;;;;;6309134;27;20075;-84
2024/03/09 16:26:35;;;;;;;20.73;9.95;;;;;;;;;;6327893;27;20055;-84
2024/03/09 16:29:36;;;;;;;13.95;8.38;;;;;;;;;;6304539;28;20506;-84
2024/03/09 16:32:38;;;;;;;19.35;9.93;;;;;;;;;;6302048;28;20113;-81
2024/03/09 16:35:44;;;;;;;24.70;11.98;;;;;;;;;;6311804;28;20046;-84
2024/03/09 16:38:46;;;;;;;14.70;8.35;;;;;;;;;;6301630;28;20055;-83
2024/03/09 16:41:48;;;;;;;16.25;9.50;;;;;;;;;;6303837;28;20044;-84
2024/03/09 16:44:49;;;;;;;16.75;8.48;;;;;;;;;;6308936;28;20534;-83
2024/03/09 16:47:54;;;;;;;16.40;8.65;;;;;;;;;;6306900;28;20059;-82
2024/03/09 16:50:56;;;;;;;16.25;9.30;;;;;;;;;;6308484;28;20102;-84
2024/03/09 16:53:58;;;;;;;16.70;9.65;;;;;;;;;;6298733;28;20048;-83
2024/03/09 16:57:00;;;;;;;17.05;10.35;;;;;;;;;;6301647;28;20052;-81
2024/03/09 17:00:02;;;;;;;18.77;10.50;;;;;;;;;;6299964;27;20052;-82
2024/03/09 17:03:15;;;;;;;26.10;12.23;;;;;;;;;;6304632;27;20048;-84
2024/03/09 17:06:19;;;;;;;;;;;;;;;;;;6304752;28;20044;-83
2024/03/09 17:09:20;;;;;;;26.55;12.45;;;;;;;;;;6293280;28;19920;-83
2024/03/09 17:12:22;;;;;;;18.33;10.90;;;;;;;;;;6291737;28;20044;-83
2024/03/09 17:15:25;;;;;;;17.33;10.18;;;;;;;;;;6303737;27;20040;-84
2024/03/09 17:18:31;;;;;;;19.67;9.75;;;;;;;;;;6294953;28;20401;-82
2024/03/09 17:21:34;;;;;;;21.52;13.15;;;;;;;;;;6311647;28;20092;-80
2024/03/09 17:24:37;;;;;;;22.73;12.43;;;;;;;;;;6300175;28;20045;-83
2024/03/09 17:27:40;;;;;;;25.75;13.48;;;;;;;;;;6310420;27;20616;-80
2024/03/09 17:30:42;;;;;;;22.42;11.70;;;;;;;;;;6303850;28;20044;-83
2024/03/09 17:33:44;;;;;;;22.33;11.90;;;;;;;;;;6279199;28;20049;-80
2024/03/09 17:36:48;;;;;;;22.38;11.55;;;;;;;;;;6287495;28;20051;-82
2024/03/09 17:39:49;;;;;;;24.35;14.80;;;;;;;;;;6295818;28;20059;-81
2024/03/09 17:42:53;;;;;;;25.48;15.50;;;;;;;;;;6296210;28;20673;-80
2024/03/09 17:45:54;;;;;;;28.65;15.27;;;;;;;;;;6286314;28;20424;-83
2024/03/09 17:48:56;;;;;;;33.95;17.13;;;;;;;;;;6302443;28;20051;-82
2024/03/09 17:51:58;;;;;;;29.63;16.20;;;;;;;;;;6303357;28;20741;-80
2024/03/09 17:55:00;;;;;;;35.92;18.15;;;;;;;;;;6309600;28;20074;-82
2024/03/09 17:58:07;;;;;;;33.60;16.50;;;;;;;;;;6294204;28;20074;-82